Aviation Digital Data Service (ADDS)

Output produced by METARs form (0425 UTC 19 February 2019)
found at http://www.aviationweather.gov/metar/data/
 
Forecast for: AGGK (KIRAKIRA , SB)
Text: TAF AGGK 182310Z 1900/1924 27020G30KT 9999 -SHRA SCT017 BKN100
Forecast period: 0000 UTC 19 February 2019 to 0000 UTC 20 February 2019
Forecast type: FROM: standard forecast or significant change
Winds: from the W (270 degrees) at 23 MPH (20 knots; 10.3 m/s)
gusting to 34 MPH (30 knots; 15.4 m/s)
Visibility: 6 or more miles 10+ km)
Ceiling: 10000 feet AGL
Clouds: scattered clouds at 1700 feet AGL
broken clouds at 10000 feet AGL
Weather: -SHRA  (light rain showers)
Text: PROB40 INTER 1900/1906 5000 TSSH BKN016 FEW017CB
Forecast period: 0000 to 0600 UTC 19 February 2019
Forecast type: TEMPORARY: The following changes expected for less than half the time period
Visibility: 3 miles (5 km)
Ceiling: 1600 feet AGL
Clouds: broken clouds at 1600 feet AGL
few clouds at 1700 feet AGL
Weather: SH TS  (showers, thunderstorm)